createdAt,value
2024-04-01T00:00:53.874Z,67.0975
2024-04-01T00:01:54.825Z,67.0856
2024-04-01T00:02:55.808Z,67.0602
2024-04-01T00:03:56.945Z,67.0308
2024-04-01T00:04:58.045Z,67.0733
2024-04-01T00:05:58.991Z,67.0168
2024-04-01T00:06:59.967Z,66.9829
2024-04-01T00:08:01.072Z,66.9492
2024-04-01T00:09:02.207Z,66.9784
2024-04-01T00:10:03.308Z,66.9798
2024-04-01T00:11:04.454Z,66.9430
2024-04-01T00:12:05.554Z,66.9409
2024-04-01T00:13:06.514Z,66.9964
2024-04-01T00:14:07.481Z,67.0120
2024-04-01T00:15:08.594Z,67.0170
2024-04-01T00:16:09.511Z,66.9689
2024-04-01T00:17:10.447Z,67.0277
2024-04-01T00:18:11.432Z,67.1288
2024-04-01T00:19:12.455Z,67.3212
2024-04-01T00:20:13.410Z,67.1952
2024-04-01T00:21:14.413Z,67.3636
2024-04-01T00:22:15.514Z,67.9137
2024-04-01T00:23:16.614Z,67.9348
2024-04-01T00:24:17.592Z,67.5391
2024-04-01T00:25:18.540Z,67.4712
2024-04-01T00:26:19.642Z,67.5255
2024-04-01T00:27:20.605Z,67.6163
2024-04-01T00:28:21.635Z,67.4745
2024-04-01T00:29:22.714Z,67.4861
2024-04-01T00:30:23.806Z,67.4471
2024-04-01T00:31:24.769Z,67.4635
2024-04-01T00:32:25.735Z,67.4749
2024-04-01T00:33:26.677Z,67.4330
2024-04-01T00:34:33.246Z,67.4266
2024-04-01T00:35:29.835Z,67.3645
2024-04-01T00:36:30.845Z,67.2855
2024-04-01T00:37:31.974Z,67.2155
2024-04-01T00:38:33.092Z,67.1792
2024-04-01T00:39:34.230Z,67.1671
2024-04-01T00:40:35.334Z,67.1942
2024-04-01T00:41:36.445Z,67.2053
2024-04-01T00:42:37.386Z,67.2147
2024-04-01T00:43:38.393Z,67.2203
2024-04-01T00:44:39.314Z,67.2329
2024-04-01T00:45:40.317Z,67.3074
2024-04-01T00:46:41.418Z,67.4458
2024-04-01T00:47:42.343Z,67.4545
2024-04-01T00:48:43.384Z,67.3810
2024-04-01T00:49:44.452Z,67.3431
2024-04-01T00:50:45.400Z,67.2985
2024-04-01T00:51:46.370Z,67.2848
2024-04-01T00:52:47.362Z,67.3300
2024-04-01T00:53:48.323Z,67.2939
2024-04-01T00:54:49.409Z,67.2582
2024-04-01T00:55:50.353Z,67.2223
2024-04-01T00:56:51.320Z,67.1921
2024-04-01T00:57:52.452Z,67.2038
2024-04-01T00:58:53.545Z,67.2560
2024-04-01T00:59:54.493Z,67.2568
2024-04-01T01:00:55.481Z,67.2362
2024-04-01T01:01:56.421Z,67.3465
2024-04-01T01:02:57.406Z,67.3577
2024-04-01T01:03:58.528Z,67.3785
2024-04-01T01:04:59.640Z,67.4634
2024-04-01T01:06:00.770Z,67.4779
2024-04-01T01:07:02.699Z,67.8531
2024-04-01T01:08:03.981Z,67.4936
2024-04-01T01:09:04.900Z,67.4003
2024-04-01T01:10:05.906Z,67.5116
2024-04-01T01:11:07.015Z,67.4317
2024-04-01T01:12:08.120Z,67.3443
2024-04-01T01:13:09.242Z,67.3423
2024-04-01T01:14:10.184Z,67.3886
2024-04-01T01:15:11.157Z,67.5433
2024-04-01T01:16:12.106Z,67.4819
2024-04-01T01:17:13.082Z,67.5058
2024-04-01T01:18:14.032Z,67.6995
2024-04-01T01:19:15.010Z,67.5132
2024-04-01T01:20:15.974Z,67.4478
2024-04-01T01:21:16.926Z,67.3869
2024-04-01T01:22:18.683Z,67.3514
2024-04-01T01:23:19.801Z,67.3419
2024-04-01T01:24:20.927Z,67.3503
2024-04-01T01:25:21.896Z,67.3474
2024-04-01T01:26:22.857Z,67.3356
2024-04-01T01:27:23.890Z,67.3255
2024-04-01T01:28:24.851Z,67.3385
2024-04-01T01:29:25.904Z,67.3726
2024-04-01T01:30:27.044Z,67.4070
2024-04-01T01:31:28.136Z,67.6502
2024-04-01T01:32:29.064Z,68.0016
2024-04-01T01:33:30.099Z,68.1201
2024-04-01T01:34:31.155Z,68.0605
2024-04-01T01:35:32.113Z,68.1117
2024-04-01T01:36:33.078Z,68.1387
2024-04-01T01:37:34.217Z,68.6287
2024-04-01T01:38:35.145Z,68.3662
2024-04-01T01:39:36.125Z,68.2247
2024-04-01T01:40:37.205Z,68.1447
2024-04-01T01:41:38.163Z,68.1205
2024-04-01T01:42:39.106Z,68.0990
2024-04-01T01:43:40.061Z,68.0422
2024-04-01T01:44:41.087Z,68.0179
2024-04-01T01:45:42.054Z,67.9243
2024-04-01T01:46:42.995Z,67.8443
2024-04-01T01:47:43.930Z,67.8051
2024-04-01T01:48:44.921Z,67.7826
2024-04-01T01:49:46.044Z,67.7513
2024-04-01T01:50:47.012Z,67.7242
2024-04-01T01:51:47.968Z,67.7056
2024-04-01T01:52:49.057Z,67.6874
2024-04-01T01:53:49.979Z,67.6922
2024-04-01T01:54:50.980Z,67.7888
2024-04-01T01:55:51.946Z,67.8262
2024-04-01T01:56:52.923Z,67.8138
2024-04-01T01:57:53.885Z,67.8294
2024-04-01T01:58:54.844Z,67.8762
2024-04-01T01:59:55.813Z,67.8947
2024-04-01T02:00:56.752Z,67.9050
2024-04-01T02:01:57.981Z,67.9171
2024-04-01T02:02:58.987Z,67.9218
2024-04-01T02:04:00.127Z,67.9248
2024-04-01T02:05:01.087Z,68.0003
2024-04-01T02:06:02.062Z,68.2299
2024-04-01T02:07:02.973Z,68.6215
2024-04-01T02:08:04.007Z,69.0771
2024-04-01T02:09:04.909Z,68.9622
2024-04-01T02:10:05.907Z,68.9284
2024-04-01T02:11:07.001Z,69.0936
2024-04-01T02:12:07.959Z,69.1893
2024-04-01T02:13:08.934Z,69.4636
2024-04-01T02:14:10.058Z,69.3929
2024-04-01T02:15:11.152Z,69.2166
2024-04-01T02:16:12.118Z,69.2313
2024-04-01T02:17:13.106Z,69.2057
2024-04-01T02:18:14.197Z,69.1486
2024-04-01T02:19:15.155Z,69.3162
2024-04-01T02:20:16.121Z,69.6008
2024-04-01T02:21:17.228Z,70.2766
2024-04-01T02:22:18.152Z,69.9589
2024-04-01T02:23:19.159Z,69.7218
2024-04-01T02:24:20.225Z,69.6270
2024-04-01T02:25:21.187Z,69.6324
2024-04-01T02:26:22.230Z,69.7991
2024-04-01T02:27:23.338Z,69.7149
2024-04-01T02:28:24.472Z,69.6790
2024-04-01T02:29:25.710Z,69.7410
2024-04-01T02:30:26.729Z,70.1539
2024-04-01T02:31:27.872Z,69.9904
2024-04-01T02:32:28.923Z,69.8515
2024-04-01T02:33:29.893Z,69.8097
2024-04-01T02:34:30.880Z,69.8557
2024-04-01T02:35:31.953Z,69.9481
2024-04-01T02:36:34.722Z,69.9960
2024-04-01T02:37:33.740Z,70.0316
2024-04-01T02:38:34.685Z,70.0472
2024-04-01T02:39:35.606Z,69.9816
2024-04-01T02:40:36.606Z,69.8882
2024-04-01T02:41:37.721Z,70.1768
2024-04-01T02:42:38.695Z,70.0643
2024-04-01T02:43:39.640Z,69.8942
2024-04-01T02:44:40.763Z,69.8972
2024-04-01T02:45:41.888Z,69.9923
2024-04-01T02:46:42.833Z,69.9750
2024-04-01T02:47:43.804Z,70.1277
2024-04-01T02:48:44.733Z,70.2218
2024-04-01T02:49:45.731Z,70.4968
2024-04-01T02:50:46.781Z,70.3895
2024-04-01T02:51:47.713Z,70.2855
2024-04-01T02:52:48.778Z,70.3812
2024-04-01T02:53:49.891Z,70.5264
2024-04-01T02:54:51.006Z,70.4571
2024-04-01T02:55:51.964Z,70.5061
2024-04-01T02:56:52.924Z,70.4921
2024-04-01T02:57:53.862Z,70.5320
2024-04-01T02:58:54.846Z,70.4448
2024-04-01T02:59:55.963Z,70.3949
2024-04-01T03:00:57.059Z,70.3830
2024-04-01T03:01:58.050Z,70.8614
2024-04-01T03:02:59.024Z,71.6609
2024-04-01T03:04:00.060Z,71.9561
2024-04-01T03:05:01.038Z,72.4228
2024-04-01T03:06:02.040Z,72.5028
2024-04-01T03:07:03.011Z,72.6304
2024-04-01T03:08:04.959Z,72.6590
2024-04-01T03:09:06.044Z,72.7398
2024-04-01T03:10:07.166Z,72.9121
2024-04-01T03:11:08.130Z,73.2678
2024-04-01T03:12:09.072Z,73.1993
2024-04-01T03:13:10.034Z,73.4916
2024-04-01T03:14:10.998Z,73.8322
2024-04-01T03:15:12.131Z,74.2908
2024-04-01T03:16:13.243Z,74.5188
2024-04-01T03:17:14.344Z,74.7025
2024-04-01T03:18:15.455Z,75.0732
2024-04-01T03:19:16.405Z,75.0517
2024-04-01T03:20:17.405Z,75.5614
2024-04-01T03:21:18.321Z,76.1020
2024-04-01T03:22:19.331Z,76.2000
2024-04-01T03:23:20.480Z,76.2911
2024-04-01T03:24:21.374Z,76.5615
2024-04-01T03:25:22.389Z,76.8099
2024-04-01T03:26:23.474Z,77.0805
2024-04-01T03:27:24.615Z,77.0372
2024-04-01T03:28:25.743Z,77.2917
2024-04-01T03:29:26.851Z,77.3709
2024-04-01T03:30:28.123Z,77.6356
2024-04-01T03:31:29.073Z,77.7290
2024-04-01T03:32:30.201Z,77.6351
2024-04-01T03:33:31.271Z,77.9064
2024-04-01T03:34:32.382Z,78.0042
2024-04-01T03:35:33.344Z,78.2246
2024-04-01T03:36:34.361Z,78.4452
2024-04-01T03:37:35.501Z,78.5012
2024-04-01T03:38:36.602Z,78.6855
2024-04-01T03:39:37.718Z,78.7406
2024-04-01T03:40:38.832Z,78.5350
2024-04-01T03:41:40.729Z,78.4242
2024-04-01T03:42:42.042Z,78.4456
2024-04-01T03:43:43.194Z,78.3358
2024-04-01T03:44:44.299Z,78.2718
2024-04-01T03:45:45.412Z,78.5347
2024-04-01T03:46:46.523Z,78.8632
2024-04-01T03:47:47.610Z,79.1969
2024-04-01T03:48:48.763Z,79.2606
2024-04-01T03:49:49.883Z,79.3447
2024-04-01T03:50:50.985Z,79.2853
2024-04-01T03:51:52.115Z,79.3637
2024-04-01T03:52:53.248Z,79.5132
2024-04-01T03:53:54.290Z,79.4110
2024-04-01T03:54:55.503Z,79.3353
2024-04-01T03:55:56.570Z,79.2452
2024-04-01T03:56:57.721Z,79.1781
2024-04-01T03:57:58.834Z,79.1351
2024-04-01T03:58:59.959Z,79.0911
2024-04-01T04:00:01.047Z,78.9547
2024-04-01T04:01:02.206Z,78.7908
2024-04-01T04:02:03.330Z,78.9078
2024-04-01T04:03:04.458Z,79.0429
2024-04-01T04:04:05.546Z,78.8267
2024-04-01T04:05:06.696Z,78.6470
2024-04-01T04:06:07.816Z,78.5100
2024-04-01T04:07:08.979Z,78.4007
2024-04-01T04:08:10.020Z,78.4803
2024-04-01T04:09:11.175Z,78.5987
2024-04-01T04:10:12.287Z,78.6799
2024-04-01T04:11:13.386Z,78.7125
2024-04-01T04:12:14.518Z,78.7464
2024-04-01T04:13:15.691Z,78.8039
2024-04-01T04:14:16.767Z,78.7579
2024-04-01T04:15:17.887Z,78.7381
2024-04-01T04:16:19.012Z,78.8923
2024-04-01T04:17:20.133Z,78.9081
2024-04-01T04:18:21.256Z,78.9077
2024-04-01T04:19:22.372Z,78.9073
2024-04-01T04:20:23.490Z,79.2371
2024-04-01T04:21:24.624Z,79.3587
2024-04-01T04:22:25.734Z,79.2597
2024-04-01T04:23:26.858Z,79.5164
2024-04-01T04:24:27.985Z,79.9127
2024-04-01T04:25:29.116Z,80.1704
2024-04-01T04:26:30.202Z,80.3468
2024-04-01T04:27:31.359Z,80.3988
2024-04-01T04:28:32.441Z,80.4063
2024-04-01T04:29:33.601Z,80.3355
2024-04-01T04:30:34.689Z,80.1362
2024-04-01T04:31:35.798Z,79.9851
2024-04-01T04:32:36.889Z,79.8835
2024-04-01T04:33:38.042Z,79.7269
2024-04-01T04:34:39.154Z,79.4488
2024-04-01T04:35:40.286Z,79.3177
2024-04-01T04:36:41.399Z,79.2291
2024-04-01T04:37:42.566Z,79.2245
2024-04-01T04:38:43.607Z,79.1984
2024-04-01T04:39:44.723Z,79.1694
2024-04-01T04:40:45.886Z,79.1838
2024-04-01T04:41:47.030Z,79.2320
2024-04-01T04:42:48.121Z,79.2539
2024-04-01T04:43:49.240Z,79.2419
2024-04-01T04:44:50.364Z,79.2729
2024-04-01T04:45:51.516Z,79.2924
2024-04-01T04:46:52.580Z,79.3142
2024-04-01T04:47:53.764Z,79.4117
2024-04-01T04:48:54.840Z,79.4908
2024-04-01T04:49:55.972Z,79.5601
2024-04-01T04:50:57.034Z,79.5704
2024-04-01T04:51:58.002Z,79.6643
2024-04-01T04:52:59.021Z,79.6748
2024-04-01T04:54:00.160Z,79.7268
2024-04-01T04:55:01.251Z,79.7851
2024-04-01T04:56:02.365Z,79.6812
2024-04-01T04:57:03.475Z,79.7008
2024-04-01T04:58:04.613Z,79.8546
2024-04-01T04:59:05.727Z,79.9050
2024-04-01T05:00:06.852Z,79.9340
2024-04-01T05:01:07.987Z,79.9878
2024-04-01T05:02:09.081Z,80.0623
2024-04-01T05:03:10.172Z,80.0485
2024-04-01T05:04:11.313Z,80.0835
2024-04-01T05:05:12.463Z,80.1061
2024-04-01T05:06:13.517Z,80.1456
2024-04-01T05:07:14.541Z,80.1018
2024-04-01T05:08:15.486Z,80.0648
2024-04-01T05:09:16.601Z,80.0560
2024-04-01T05:10:17.753Z,80.0502
2024-04-01T05:11:18.845Z,80.0424
2024-04-01T05:12:19.965Z,80.0660
2024-04-01T05:13:21.086Z,80.1348
2024-04-01T05:14:22.174Z,80.1640
2024-04-01T05:15:23.286Z,80.1899
2024-04-01T05:16:24.443Z,80.1018
2024-04-01T05:17:25.565Z,80.0668
2024-04-01T05:18:26.651Z,80.0111
2024-04-01T05:19:27.803Z,79.9555
2024-04-01T05:20:28.945Z,79.9080
2024-04-01T05:21:30.033Z,79.9097
2024-04-01T05:22:31.112Z,80.0621
2024-04-01T05:23:32.270Z,80.0997
2024-04-01T05:24:33.243Z,80.0356
2024-04-01T05:25:34.266Z,80.0156
2024-04-01T05:26:35.337Z,80.0688
2024-04-01T05:27:36.438Z,80.0669
2024-04-01T05:28:37.562Z,80.1199
2024-04-01T05:29:38.682Z,80.1596
2024-04-01T05:30:39.822Z,80.1221
2024-04-01T05:31:40.913Z,80.1481
2024-04-01T05:32:42.113Z,80.1570
2024-04-01T05:33:43.206Z,80.1681
2024-04-01T05:34:44.293Z,80.2211
2024-04-01T05:35:45.402Z,80.2354
2024-04-01T05:36:46.542Z,80.2582
2024-04-01T05:37:47.628Z,80.3807
2024-04-01T05:38:48.726Z,80.2303
2024-04-01T05:39:49.877Z,80.2395
2024-04-01T05:40:51.007Z,80.2964
2024-04-01T05:41:52.082Z,80.3560
2024-04-01T05:42:53.252Z,80.3642
2024-04-01T05:43:54.373Z,80.3735
2024-04-01T05:44:55.492Z,80.3986
2024-04-01T05:45:56.600Z,80.4002
2024-04-01T05:46:57.745Z,80.4181
2024-04-01T05:47:58.839Z,80.4877
2024-04-01T05:48:59.965Z,80.5263
2024-04-01T05:50:01.079Z,80.6344
2024-04-01T05:51:02.211Z,80.6024
2024-04-01T05:52:03.318Z,80.5109
2024-04-01T05:53:04.421Z,80.4758
2024-04-01T05:54:05.588Z,80.4671
2024-04-01T05:55:06.692Z,80.4730
2024-04-01T05:56:07.756Z,80.4959
2024-04-01T05:57:08.916Z,80.5078
2024-04-01T05:58:10.014Z,80.5286
2024-04-01T05:59:11.178Z,80.5174
2024-04-01T06:00:12.280Z,80.5718
2024-04-01T06:01:13.404Z,80.5641
2024-04-01T06:02:14.546Z,80.6344
2024-04-01T06:03:15.691Z,80.6000
2024-04-01T06:04:16.776Z,80.5892
2024-04-01T06:05:17.850Z,80.5116
2024-04-01T06:06:18.992Z,80.5213
2024-04-01T06:07:20.133Z,80.4902
2024-04-01T06:08:21.237Z,80.4965
2024-04-01T06:09:22.344Z,80.5114
2024-04-01T06:10:23.485Z,80.4302
2024-04-01T06:11:24.629Z,80.4085
2024-04-01T06:12:25.676Z,80.4412
2024-04-01T06:13:26.838Z,80.4821
2024-04-01T06:14:29.510Z,80.5159
2024-04-01T06:15:29.375Z,80.5288
2024-04-01T06:16:30.556Z,80.5264
2024-04-01T06:17:31.657Z,80.5458
2024-04-01T06:18:32.671Z,80.5465
2024-04-01T06:19:33.731Z,80.4860
2024-04-01T06:20:34.683Z,80.4260
2024-04-01T06:21:35.822Z,80.3888
2024-04-01T06:22:36.941Z,80.3949
2024-04-01T06:23:38.040Z,80.4118
2024-04-01T06:24:39.161Z,80.4128
2024-04-01T06:25:40.296Z,80.3150
2024-04-01T06:26:41.539Z,80.3577
2024-04-01T06:27:42.595Z,80.3138
2024-04-01T06:28:43.641Z,80.3069
2024-04-01T06:29:44.716Z,80.2443
2024-04-01T06:30:45.965Z,80.1270
2024-04-01T06:31:46.971Z,80.1892
2024-04-01T06:32:48.132Z,80.3540
2024-04-01T06:33:49.237Z,80.5652
2024-04-01T06:34:50.359Z,80.5455
2024-04-01T06:35:51.511Z,80.4032
2024-04-01T06:36:52.600Z,80.4960
2024-04-01T06:37:53.743Z,80.6984
2024-04-01T06:38:54.846Z,81.5800
2024-04-01T06:39:55.978Z,81.7825
2024-04-01T06:40:57.080Z,81.8292
2024-04-01T06:41:58.205Z,82.5821
2024-04-01T06:42:59.306Z,82.4256
2024-04-01T06:44:00.453Z,82.2492
2024-04-01T06:45:01.578Z,82.2730
2024-04-01T06:46:02.662Z,81.8801
2024-04-01T06:47:03.801Z,81.4089
2024-04-01T06:48:04.921Z,81.0659
2024-04-01T06:49:06.045Z,80.9395
2024-04-01T06:50:07.172Z,80.8800
2024-04-01T06:51:08.285Z,80.7093
2024-04-01T06:52:09.418Z,80.5130
2024-04-01T06:53:10.515Z,80.2833
2024-04-01T06:54:11.671Z,80.3665
2024-04-01T06:55:12.771Z,80.3333
2024-04-01T06:56:13.895Z,80.2848
2024-04-01T06:57:15.003Z,80.3282
2024-04-01T06:58:16.191Z,80.3087
2024-04-01T06:59:17.216Z,80.0469
2024-04-01T07:00:18.383Z,79.7738
2024-04-01T07:01:19.485Z,79.8204
2024-04-01T07:02:20.555Z,79.8926
2024-04-01T07:03:21.725Z,79.9975
2024-04-01T07:04:22.819Z,80.0267
2024-04-01T07:05:23.968Z,80.0000
2024-04-01T07:06:25.093Z,79.8397
2024-04-01T07:07:26.044Z,80.4124
2024-04-01T07:08:27.094Z,82.8072
2024-04-01T07:09:28.132Z,82.7103
2024-04-01T07:10:29.289Z,81.3770
2024-04-01T07:11:30.368Z,80.7781
2024-04-01T07:12:31.495Z,80.3644
2024-04-01T07:13:32.654Z,79.7561
2024-04-01T07:14:33.726Z,79.2728
2024-04-01T07:15:34.863Z,79.3928
2024-04-01T07:16:35.976Z,79.2689
2024-04-01T07:17:37.105Z,79.3949
2024-04-01T07:18:38.198Z,79.3816
2024-04-01T07:19:39.272Z,79.2328
2024-04-01T07:20:40.496Z,79.3104
2024-04-01T07:21:41.519Z,79.2554
2024-04-01T07:22:42.543Z,79.0563
2024-04-01T07:23:43.563Z,79.0212
2024-04-01T07:24:44.617Z,78.9209
2024-04-01T07:25:45.737Z,78.7230
2024-04-01T07:26:46.846Z,78.8254
2024-04-01T07:27:48.088Z,79.0583
2024-04-01T07:28:49.084Z,78.9642
2024-04-01T07:29:50.260Z,78.8349
2024-04-01T07:30:51.319Z,78.6298
2024-04-01T07:31:52.436Z,78.7348
2024-04-01T07:32:55.062Z,78.4653
2024-04-01T07:33:54.056Z,78.1887
2024-04-01T07:34:55.167Z,78.3176
2024-04-01T07:35:56.285Z,78.4438
2024-04-01T07:36:57.402Z,78.3461
2024-04-01T07:37:58.627Z,78.4394
2024-04-01T07:38:59.709Z,78.3323
2024-04-01T07:40:00.770Z,78.1197
2024-04-01T07:41:01.893Z,78.2010
2024-04-01T07:42:03.013Z,78.1213
2024-04-01T07:43:04.124Z,78.3220
2024-04-01T07:44:05.244Z,78.4342
2024-04-01T07:45:06.364Z,78.4813
2024-04-01T07:46:07.544Z,78.4454
2024-04-01T07:47:08.619Z,78.2299
2024-04-01T07:48:09.786Z,78.2191
2024-04-01T07:49:10.903Z,78.3919
2024-04-01T07:50:11.987Z,78.4618
2024-04-01T07:51:13.083Z,78.3985
2024-04-01T07:52:14.268Z,78.4525
2024-04-01T07:53:16.360Z,78.3427
2024-04-01T07:54:16.461Z,78.1892
2024-04-01T07:55:17.639Z,78.1858
2024-04-01T07:56:18.738Z,77.8988
2024-04-01T07:57:19.820Z,77.7361
2024-04-01T07:58:20.944Z,77.8849
2024-04-01T07:59:22.115Z,77.8612
2024-04-01T08:00:23.170Z,78.0177
2024-04-01T08:01:24.272Z,78.0726
2024-04-01T08:02:25.410Z,78.1690
2024-04-01T08:03:26.583Z,77.9887
2024-04-01T08:04:27.684Z,77.7615
2024-04-01T08:05:28.823Z,77.7060
2024-04-01T08:06:29.916Z,77.8185
2024-04-01T08:07:31.013Z,77.6823
2024-04-01T08:08:32.184Z,77.7362
2024-04-01T08:09:33.299Z,77.4388
2024-04-01T08:10:34.381Z,77.2173
2024-04-01T08:11:35.547Z,77.3317
2024-04-01T08:12:36.618Z,77.2771
2024-04-01T08:13:37.750Z,77.3826
2024-04-01T08:14:38.913Z,77.5497
2024-04-01T08:15:39.971Z,77.6328
2024-04-01T08:16:41.102Z,77.4198
2024-04-01T08:17:42.257Z,77.1255
2024-04-01T08:18:43.346Z,77.1412
2024-04-01T08:19:44.500Z,77.0709
2024-04-01T08:20:45.624Z,77.1273
2024-04-01T08:21:46.699Z,77.1582
2024-04-01T08:22:47.818Z,76.9411
2024-04-01T08:23:48.987Z,76.9703
2024-04-01T08:24:50.050Z,77.2157
2024-04-01T08:25:51.244Z,77.3084
2024-04-01T08:26:52.303Z,77.2677
2024-04-01T08:27:53.372Z,77.3104
2024-04-01T08:28:54.595Z,77.1278
2024-04-01T08:29:55.673Z,77.2901
2024-04-01T08:30:56.829Z,77.1685
2024-04-01T08:31:57.898Z,77.1374
2024-04-01T08:32:59.025Z,76.9181
2024-04-01T08:34:00.149Z,77.1265
2024-04-01T08:35:01.248Z,77.0239
2024-04-01T08:36:02.421Z,76.7706
2024-04-01T08:37:03.452Z,76.6887
2024-04-01T08:38:04.652Z,76.5803
2024-04-01T08:39:05.729Z,76.6669
2024-04-01T08:40:06.896Z,76.8909
2024-04-01T08:41:08.022Z,76.7301
2024-04-01T08:42:09.105Z,75.7357
2024-04-01T08:43:10.260Z,75.3059
2024-04-01T08:44:11.375Z,75.2390
2024-04-01T08:45:12.493Z,75.1380
2024-04-01T08:46:13.606Z,75.0491
2024-04-01T08:47:14.719Z,75.0537
2024-04-01T08:48:15.836Z,74.8802
2024-04-01T08:49:16.971Z,75.1005
2024-04-01T08:50:18.109Z,74.9239
2024-04-01T08:51:19.228Z,74.9109
2024-04-01T08:52:20.348Z,75.0707
2024-04-01T08:53:21.450Z,75.0595
2024-04-01T08:54:22.545Z,75.1629
2024-04-01T08:55:23.655Z,74.9153
2024-04-01T08:56:24.754Z,74.9613
2024-04-01T08:57:25.878Z,74.4917
2024-04-01T08:58:27.081Z,74.3021
2024-04-01T08:59:28.122Z,74.3776
2024-04-01T09:00:29.272Z,74.6978
2024-04-01T09:01:30.419Z,74.8114
2024-04-01T09:02:31.536Z,74.8715
2024-04-01T09:03:32.656Z,74.8118
2024-04-01T09:04:33.756Z,74.7144
2024-04-01T09:05:34.950Z,73.9774
2024-04-01T09:06:35.983Z,74.0514
2024-04-01T09:07:37.182Z,74.1405
2024-04-01T09:08:38.269Z,73.6495
2024-04-01T09:09:39.324Z,73.7700
2024-04-01T09:10:40.599Z,73.9540
2024-04-01T09:11:41.736Z,73.9684
2024-04-01T09:12:42.841Z,74.1537
2024-04-01T09:13:43.942Z,74.4481
2024-04-01T09:14:45.216Z,74.0895
2024-04-01T09:15:46.428Z,73.8193
2024-04-01T09:16:47.559Z,73.3137
2024-04-01T09:17:48.599Z,73.3105
2024-04-01T09:18:49.774Z,73.1279
2024-04-01T09:19:50.838Z,73.2496
2024-04-01T09:20:52.025Z,74.1016
2024-04-01T09:21:53.157Z,73.9717
2024-04-01T09:22:54.254Z,74.1600
2024-04-01T09:23:56.107Z,74.3737
2024-04-01T09:24:55.836Z,74.3106
2024-04-01T09:25:56.961Z,74.1750
2024-04-01T09:26:58.137Z,74.0020
2024-04-01T09:27:59.194Z,73.5695
2024-04-01T09:29:00.338Z,73.1435
2024-04-01T09:30:01.468Z,72.6042
2024-04-01T09:31:02.560Z,72.2830
2024-04-01T09:32:03.687Z,72.5883
2024-04-01T09:33:04.823Z,72.5862
2024-04-01T09:34:05.908Z,72.6503
2024-04-01T09:35:07.015Z,72.6347
2024-04-01T09:36:08.133Z,72.9919
2024-04-01T09:37:09.297Z,72.9676
2024-04-01T09:38:10.372Z,72.9072
2024-04-01T09:39:11.551Z,71.8388
2024-04-01T09:40:12.653Z,72.0936
2024-04-01T09:41:13.753Z,72.5211
2024-04-01T09:42:14.899Z,73.4753
2024-04-01T09:43:15.985Z,75.4214
2024-04-01T09:44:17.095Z,77.7705
2024-04-01T09:45:18.242Z,78.3151
2024-04-01T09:46:19.349Z,78.3447
2024-04-01T09:47:20.540Z,77.3578
2024-04-01T09:48:21.311Z,74.0231
2024-04-01T09:49:22.475Z,72.9413
2024-04-01T09:50:23.576Z,72.4761
2024-04-01T09:51:24.863Z,72.3849
2024-04-01T09:52:26.042Z,72.3593
2024-04-01T09:53:27.088Z,72.3909
2024-04-01T09:54:28.283Z,72.4463
2024-04-01T09:55:29.512Z,72.1128
2024-04-01T09:56:30.678Z,71.7867
2024-04-01T09:57:36.648Z,71.9552
2024-04-01T09:58:31.809Z,71.3032
2024-04-01T09:59:33.036Z,71.5389
2024-04-01T10:00:34.096Z,71.9066
2024-04-01T10:01:35.180Z,71.8914
2024-04-01T10:02:36.368Z,71.8839
2024-04-01T10:03:39.323Z,72.5400
2024-04-01T10:04:38.620Z,72.7780
2024-04-01T10:05:39.734Z,72.8031
2024-04-01T10:06:40.855Z,72.2947
2024-04-01T10:07:42.061Z,71.8149
2024-04-01T10:08:43.082Z,71.6359
2024-04-01T10:09:44.215Z,71.7355
2024-04-01T10:10:45.356Z,71.6504
2024-04-01T10:11:46.498Z,71.6147
2024-04-01T10:12:47.531Z,71.1096
2024-04-01T10:13:48.632Z,71.0044
2024-04-01T10:14:49.672Z,70.9975
2024-04-01T10:15:51.388Z,70.5122
2024-04-01T10:16:52.634Z,70.6398
2024-04-01T10:17:53.694Z,70.9158
2024-04-01T10:18:54.793Z,71.1024
2024-04-01T10:19:55.895Z,71.2976
2024-04-01T10:20:56.981Z,70.8519
2024-04-01T10:21:58.101Z,70.4463
2024-04-01T10:22:59.186Z,70.6876
2024-04-01T10:24:00.283Z,71.2063
2024-04-01T10:25:01.346Z,71.5423
2024-04-01T10:26:04.055Z,71.5059
2024-04-01T10:27:03.744Z,71.5734
2024-04-01T10:28:04.863Z,71.3817
2024-04-01T10:29:05.959Z,71.5744
2024-04-01T10:30:07.087Z,71.5734
2024-04-01T10:31:08.181Z,71.3042
2024-04-01T10:32:09.307Z,70.9294
2024-04-01T10:33:10.397Z,71.2765
2024-04-01T10:34:11.485Z,70.9005
2024-04-01T10:35:12.598Z,71.1842
2024-04-01T10:36:23.650Z,71.2886
2024-04-01T10:37:15.969Z,71.2372
2024-04-01T10:38:17.073Z,71.2886
2024-04-01T10:39:18.209Z,70.6414
2024-04-01T10:40:19.287Z,70.4329
2024-04-01T10:41:20.307Z,71.0051
2024-04-01T10:42:21.382Z,71.1890
2024-04-01T10:43:22.461Z,71.4739
2024-04-01T10:44:23.580Z,71.4067
2024-04-01T10:45:24.703Z,70.8538
2024-04-01T10:46:26.583Z,70.5575
2024-04-01T10:47:26.168Z,70.3821
2024-04-01T10:48:27.236Z,70.1989
2024-04-01T10:49:28.348Z,70.4333
2024-04-01T10:50:29.418Z,70.2671
2024-04-01T10:51:30.480Z,70.5330
2024-04-01T10:52:31.596Z,70.3986
2024-04-01T10:53:32.699Z,70.1020
2024-04-01T10:54:33.803Z,69.7988
2024-04-01T10:55:34.924Z,69.7677
2024-04-01T10:56:35.984Z,69.3394
2024-04-01T10:57:37.075Z,69.4406
2024-04-01T10:58:38.176Z,69.8327
2024-04-01T10:59:39.285Z,69.7366
2024-04-01T11:00:40.405Z,69.2599
2024-04-01T11:01:41.516Z,69.0602
2024-04-01T11:02:42.584Z,69.1948
2024-04-01T11:03:43.655Z,69.3398
2024-04-01T11:04:44.735Z,69.3928
2024-04-01T11:05:45.810Z,69.8855
2024-04-01T11:06:46.951Z,70.2885
2024-04-01T11:07:48.064Z,70.4734
2024-04-01T11:08:49.178Z,70.6478
2024-04-01T11:09:50.255Z,70.7304
2024-04-01T11:10:51.337Z,70.2907
2024-04-01T11:11:52.447Z,70.4916
2024-04-01T11:12:53.529Z,70.4896
2024-04-01T11:13:54.621Z,70.0347
2024-04-01T11:14:56.721Z,69.9999
2024-04-01T11:15:57.839Z,70.0276
2024-04-01T11:16:58.953Z,69.7844
2024-04-01T11:18:00.184Z,69.5115
2024-04-01T11:19:01.269Z,69.5050
2024-04-01T11:20:02.384Z,69.8465
2024-04-01T11:21:03.435Z,70.1095
2024-04-01T11:22:04.548Z,70.2187
2024-04-01T11:23:05.597Z,70.2568
2024-04-01T11:24:06.686Z,70.3470
2024-04-01T11:25:07.801Z,70.3424
2024-04-01T11:26:08.902Z,70.1725
2024-04-01T11:27:10.031Z,70.0936
2024-04-01T11:28:11.118Z,70.2644
2024-04-01T11:29:12.193Z,69.8186
2024-04-01T11:30:13.310Z,69.3209
2024-04-01T11:31:14.388Z,69.5157
2024-04-01T11:32:15.517Z,69.4819
2024-04-01T11:33:18.848Z,69.5604
2024-04-01T11:34:17.794Z,69.6094
2024-04-01T11:35:18.825Z,69.6590
2024-04-01T11:36:19.931Z,69.7278
2024-04-01T11:37:21.027Z,69.8936
2024-04-01T11:38:22.102Z,70.0418
2024-04-01T11:39:23.202Z,69.7163
2024-04-01T11:40:24.280Z,69.6559
2024-04-01T11:41:25.389Z,69.2398
2024-04-01T11:42:26.496Z,69.0222
2024-04-01T11:43:27.602Z,69.1785
2024-04-01T11:44:30.865Z,69.6059
2024-04-01T11:45:31.020Z,69.7133
2024-04-01T11:46:32.107Z,69.5386
2024-04-01T11:47:33.213Z,69.3641
2024-04-01T11:48:34.353Z,69.1412
2024-04-01T11:49:35.436Z,69.0781
2024-04-01T11:50:36.586Z,68.9699
2024-04-01T11:51:38.688Z,68.4107
2024-04-01T11:52:39.802Z,68.4217
2024-04-01T11:53:40.947Z,68.5592
2024-04-01T11:54:42.089Z,68.5497
2024-04-01T11:55:43.464Z,68.5319
2024-04-01T11:56:44.588Z,68.4872
2024-04-01T11:57:45.746Z,68.3984
2024-04-01T11:58:46.888Z,68.2744
2024-04-01T11:59:48.307Z,68.0145
2024-04-01T12:00:49.696Z,68.1067
2024-04-01T12:01:50.846Z,68.5035
2024-04-01T12:02:51.942Z,68.6444
2024-04-01T12:03:53.090Z,68.3410
2024-04-01T12:04:54.205Z,68.2764
2024-04-01T12:05:55.397Z,68.2332
2024-04-01T12:06:56.754Z,68.4240
2024-04-01T12:07:57.867Z,68.5568
2024-04-01T12:08:59.010Z,68.6445
2024-04-01T12:10:00.438Z,68.7674
2024-04-01T12:11:01.555Z,68.9225
2024-04-01T12:12:02.697Z,68.8665
2024-04-01T12:13:03.799Z,68.9222
2024-04-01T12:14:05.124Z,69.0328
2024-04-01T12:15:06.271Z,68.9133
2024-04-01T12:16:07.471Z,68.8544
2024-04-01T12:17:08.604Z,69.1347
2024-04-01T12:18:09.737Z,69.0681
2024-04-01T12:19:10.891Z,68.7043